Baxter Springs, Kansas
Current Conditions -  °F | °C
As of 1:53 AM on Thursday 27 Nov 2014 (Local Time) from KJLN Reporting Station
Clear Clear  
Wind Chill: 19°   Ceiling: Unl
Heat Index: 28°   Visibility: 10mi
Dew Point: 22°   Wind: 9mph
Humidity: 78%   Direction: 350°N
Pressure: 30.44"   Gusts: NA
Location:  37.02°N, 94.74°W
Report Text: KJLN 270753Z AUTO 35008KT 10SM CLR M02/M06 A3044 RMK AO2 SLP312 T10221056
Loading
Personal Weather Stations






























Interactive Weather Map New forecast layout! Learn more

10-Day Weather Forecast

Advertisements
Track Severe Weather on mobile